createdAt,value
2023-05-06T00:00:44.684Z,9.32
2023-05-06T00:03:12.254Z,9.68
2023-05-06T00:05:40.325Z,10.60
2023-05-06T00:08:07.906Z,11.07
2023-05-06T00:10:35.586Z,10.95
2023-05-06T00:13:03.214Z,10.15
2023-05-06T00:15:32.242Z,10.40
2023-05-06T00:18:01.652Z,9.82
2023-05-06T00:20:29.223Z,11.77
2023-05-06T00:22:56.866Z,11.27
2023-05-06T00:25:24.394Z,11.20
2023-05-06T00:27:51.969Z,12.38
2023-05-06T00:30:19.571Z,12.52
2023-05-06T00:32:47.226Z,11.93
2023-05-06T00:35:16.032Z,11.75
2023-05-06T00:37:45.953Z,11.85
2023-05-06T00:40:14.008Z,12.27
2023-05-06T00:42:41.522Z,12.95
2023-05-06T00:45:09.732Z,11.63
2023-05-06T00:47:37.532Z,11.95
2023-05-06T00:50:05.495Z,12.73
2023-05-06T00:52:34.613Z,12.48
2023-05-06T00:55:02.237Z,12.00
2023-05-06T00:57:29.767Z,13.55
2023-05-06T00:59:57.332Z,13.45
2023-05-06T01:02:33.222Z,12.88
2023-05-06T01:05:04.163Z,12.77
2023-05-06T01:07:43.358Z,12.30
2023-05-06T01:10:18.792Z,12.38
2023-05-06T01:12:51.572Z,14.02
2023-05-06T01:15:22.891Z,12.98
2023-05-06T01:17:52.103Z,12.88
2023-05-06T01:20:21.208Z,13.63
2023-05-06T01:22:50.067Z,12.40
2023-05-06T01:25:22.407Z,11.70
2023-05-06T01:27:50.073Z,11.50
2023-05-06T01:30:18.477Z,12.13
2023-05-06T01:32:51.417Z,10.98
2023-05-06T01:35:22.546Z,11.50
2023-05-06T01:37:53.817Z,10.43
2023-05-06T01:40:26.293Z,9.30
2023-05-06T01:42:54.104Z,8.48
2023-05-06T01:45:22.865Z,8.88
2023-05-06T01:47:51.029Z,7.90
2023-05-06T01:50:18.920Z,8.05
2023-05-06T01:52:46.512Z,7.90
2023-05-06T01:55:14.072Z,8.77
2023-05-06T01:57:43.256Z,8.80
2023-05-06T02:00:11.216Z,8.50
2023-05-06T02:02:38.869Z,9.57
2023-05-06T02:05:07.120Z,9.02
2023-05-06T02:07:34.764Z,9.68
2023-05-06T02:10:02.259Z,8.73
2023-05-06T02:12:29.745Z,7.78
2023-05-06T02:14:58.560Z,7.80
2023-05-06T02:17:26.196Z,7.60
2023-05-06T02:19:53.737Z,7.70
2023-05-06T02:22:21.460Z,7.90
2023-05-06T02:24:48.961Z,7.50
2023-05-06T02:27:16.503Z,7.45
2023-05-06T02:29:44.021Z,7.00
2023-05-06T02:32:12.969Z,7.35
2023-05-06T02:34:40.555Z,7.22
2023-05-06T02:37:08.115Z,7.15
2023-05-06T02:39:35.640Z,6.90
2023-05-06T02:42:03.766Z,6.95
2023-05-06T02:44:31.425Z,6.85
2023-05-06T02:46:58.960Z,7.28
2023-05-06T02:49:27.908Z,7.65
2023-05-06T02:51:55.507Z,7.75
2023-05-06T02:54:23.108Z,9.75
2023-05-06T02:56:50.590Z,11.15
2023-05-06T02:59:18.116Z,12.20
2023-05-06T03:01:46.173Z,11.48
2023-05-06T03:04:13.730Z,13.18
2023-05-06T03:06:42.795Z,13.55
2023-05-06T03:09:10.328Z,14.05
2023-05-06T03:11:37.954Z,12.85
2023-05-06T03:14:05.534Z,13.43
2023-05-06T03:16:33.111Z,13.45
2023-05-06T03:19:00.788Z,12.80
2023-05-06T03:21:28.543Z,14.55
2023-05-06T03:23:57.423Z,12.23
2023-05-06T03:26:25.030Z,12.57
2023-05-06T03:28:52.499Z,12.18
2023-05-06T03:31:20.032Z,14.63
2023-05-06T03:33:47.723Z,12.35
2023-05-06T03:36:15.254Z,12.38
2023-05-06T03:38:45.219Z,12.18
2023-05-06T03:41:14.202Z,11.82
2023-05-06T03:43:41.755Z,12.48
2023-05-06T03:46:09.471Z,13.45
2023-05-06T03:48:37.004Z,13.07
2023-05-06T03:51:04.627Z,13.88
2023-05-06T03:53:32.214Z,14.02
2023-05-06T03:56:01.624Z,14.52
2023-05-06T03:58:30.608Z,13.80
2023-05-06T04:01:00.808Z,13.85
2023-05-06T04:03:28.401Z,12.60
2023-05-06T04:05:56.021Z,12.63
2023-05-06T04:08:23.581Z,12.27
2023-05-06T04:10:51.069Z,12.07
2023-05-06T04:13:19.704Z,11.15
2023-05-06T04:15:49.385Z,12.18
2023-05-06T04:18:19.309Z,10.63
2023-05-06T04:20:47.368Z,11.02
2023-05-06T04:23:15.150Z,10.80
2023-05-06T04:25:48.755Z,10.27
2023-05-06T04:28:16.890Z,10.95
2023-05-06T04:30:44.583Z,10.73
2023-05-06T04:33:13.960Z,11.38
2023-05-06T04:35:42.346Z,15.00
2023-05-06T04:38:09.859Z,22.55
2023-05-06T04:40:39.732Z,27.40
2023-05-06T04:43:07.235Z,23.67
2023-05-06T04:45:37.816Z,19.65
2023-05-06T04:48:05.702Z,20.02
2023-05-06T04:50:34.593Z,19.00
2023-05-06T04:53:02.100Z,12.55
2023-05-06T04:55:29.623Z,10.80
2023-05-06T04:57:57.187Z,10.05
2023-05-06T05:00:26.197Z,11.77
2023-05-06T05:02:53.834Z,11.48
2023-05-06T05:05:21.493Z,12.38
2023-05-06T05:07:50.400Z,13.15
2023-05-06T05:10:17.910Z,13.32
2023-05-06T05:12:46.262Z,12.23
2023-05-06T05:15:13.889Z,12.02
2023-05-06T05:17:41.512Z,12.43
2023-05-06T05:20:09.524Z,14.00
2023-05-06T05:22:37.222Z,11.95
2023-05-06T05:25:08.322Z,16.20
2023-05-06T05:27:36.555Z,14.45
2023-05-06T05:30:04.166Z,14.05
2023-05-06T05:32:31.918Z,11.70
2023-05-06T05:34:59.419Z,13.05
2023-05-06T05:37:26.996Z,13.50
2023-05-06T05:39:54.514Z,12.18
2023-05-06T05:42:23.456Z,13.40
2023-05-06T05:44:50.956Z,14.35
2023-05-06T05:47:18.542Z,13.35
2023-05-06T05:49:46.065Z,15.13
2023-05-06T05:52:16.303Z,14.50
2023-05-06T05:54:43.909Z,13.15
2023-05-06T05:57:11.523Z,15.02
2023-05-06T05:59:40.561Z,14.85
2023-05-06T06:02:08.087Z,14.43
2023-05-06T06:04:35.770Z,14.02
2023-05-06T06:07:03.942Z,15.73
2023-05-06T06:09:31.524Z,16.13
2023-05-06T06:11:59.012Z,16.40
2023-05-06T06:14:26.525Z,15.50
2023-05-06T06:16:55.392Z,17.38
2023-05-06T06:19:22.963Z,19.05
2023-05-06T06:21:50.600Z,18.02
2023-05-06T06:24:18.168Z,18.60
2023-05-06T06:26:45.737Z,18.42
2023-05-06T06:29:13.446Z,17.90
2023-05-06T06:31:41.328Z,17.40
2023-05-06T06:34:12.586Z,16.13
2023-05-06T06:36:45.081Z,14.40
2023-05-06T06:39:12.847Z,15.20
2023-05-06T06:41:40.507Z,14.55
2023-05-06T06:44:08.213Z,15.50
2023-05-06T06:46:35.823Z,15.30
2023-05-06T06:49:03.344Z,12.88
2023-05-06T06:51:32.570Z,13.27
2023-05-06T06:54:03.205Z,12.25
2023-05-06T06:56:31.827Z,10.45
2023-05-06T06:58:59.438Z,10.45
2023-05-06T07:01:26.981Z,8.60
2023-05-06T07:03:54.549Z,9.75
2023-05-06T07:06:22.215Z,8.18
2023-05-06T07:08:51.127Z,8.43
2023-05-06T07:11:18.637Z,7.78
2023-05-06T07:13:46.098Z,6.97
2023-05-06T07:16:13.622Z,6.60
2023-05-06T07:18:41.270Z,7.25
2023-05-06T07:21:08.809Z,7.57
2023-05-06T07:23:36.282Z,8.15
2023-05-06T07:26:05.566Z,6.82
2023-05-06T07:28:33.157Z,6.28
2023-05-06T07:31:00.725Z,6.38
2023-05-06T07:34:09.229Z,7.03
2023-05-06T07:36:40.385Z,6.55
2023-05-06T07:39:08.034Z,5.80
2023-05-06T07:41:37.233Z,6.88
2023-05-06T07:44:04.987Z,6.13
2023-05-06T07:46:34.468Z,5.45
2023-05-06T07:49:02.249Z,5.47
2023-05-06T07:51:29.879Z,5.53
2023-05-06T07:53:57.410Z,5.82
2023-05-06T07:56:29.364Z,5.18
2023-05-06T07:58:59.308Z,6.13
2023-05-06T08:01:26.887Z,5.63
2023-05-06T08:03:54.547Z,5.38
2023-05-06T08:09:41.124Z,4.90
2023-05-06T08:12:08.931Z,4.65
2023-05-06T08:16:00.893Z,5.20
2023-05-06T08:19:35.238Z,4.07
2023-05-06T08:22:55.222Z,4.50
2023-05-06T08:37:10.409Z,3.30
2023-05-06T08:39:02.664Z,3.50
2023-05-06T08:42:31.261Z,3.50
2023-05-06T08:55:50.907Z,3.70
2023-05-06T09:01:47.197Z,3.15
2023-05-06T09:04:15.591Z,3.20
2023-05-06T09:06:54.606Z,3.50
2023-05-06T09:09:23.264Z,2.92
2023-05-06T09:11:54.113Z,3.20
2023-05-06T09:14:22.237Z,2.65
2023-05-06T09:16:52.574Z,2.72
2023-05-06T09:19:20.806Z,2.83
2023-05-06T09:21:49.768Z,2.88
2023-05-06T09:24:17.748Z,2.80
2023-05-06T09:26:46.139Z,3.05
2023-05-06T09:29:13.982Z,2.60
2023-05-06T09:31:42.192Z,2.38
2023-05-06T09:34:11.328Z,2.58
2023-05-06T09:36:39.070Z,2.70
2023-05-06T09:39:06.755Z,2.30
2023-05-06T09:41:35.438Z,2.30
2023-05-06T09:44:03.103Z,2.33
2023-05-06T09:46:31.314Z,2.58
2023-05-06T09:48:59.009Z,2.40
2023-05-06T09:51:28.921Z,2.15
2023-05-06T09:53:57.106Z,2.60
2023-05-06T09:56:24.907Z,2.20
2023-05-06T09:58:53.633Z,2.47
2023-05-06T10:01:32.547Z,2.70
2023-05-06T10:04:04.868Z,2.67
2023-05-06T10:06:35.610Z,2.45
2023-05-06T10:09:03.484Z,2.63
2023-05-06T10:11:32.160Z,2.10
2023-05-06T10:14:01.170Z,2.20
2023-05-06T10:16:28.951Z,1.98
2023-05-06T10:18:56.819Z,2.67
2023-05-06T10:21:27.447Z,2.40
2023-05-06T10:23:59.816Z,2.03
2023-05-06T10:26:28.463Z,2.00
2023-05-06T10:28:56.007Z,1.60
2023-05-06T10:31:27.110Z,1.70
2023-05-06T10:33:55.404Z,1.50
2023-05-06T10:36:23.928Z,1.60
2023-05-06T10:38:54.811Z,1.60
2023-05-06T10:41:26.033Z,1.70
2023-05-06T10:43:57.252Z,1.98
2023-05-06T10:46:26.176Z,1.85
2023-05-06T10:49:13.740Z,1.92
2023-05-06T10:51:48.167Z,2.00
2023-05-06T10:54:25.383Z,1.52
2023-05-06T10:57:10.258Z,1.40
2023-05-06T10:59:37.836Z,1.60
2023-05-06T11:02:11.673Z,1.50
2023-05-06T11:04:39.849Z,1.30
2023-05-06T11:07:08.428Z,1.50
2023-05-06T11:09:54.334Z,1.48
2023-05-06T11:12:23.699Z,1.50
2023-05-06T11:14:51.377Z,1.25
2023-05-06T11:17:31.875Z,1.42
2023-05-06T11:20:18.042Z,1.30
2023-05-06T11:22:45.726Z,1.40
2023-05-06T11:25:13.502Z,1.50
2023-05-06T11:27:42.574Z,1.23
2023-05-06T11:30:14.376Z,1.30
2023-05-06T11:32:44.043Z,1.40
2023-05-06T11:35:12.971Z,1.50
2023-05-06T11:37:43.495Z,1.50
2023-05-06T11:40:15.352Z,1.52
2023-05-06T11:42:44.284Z,1.40
2023-05-06T11:45:12.600Z,1.50
2023-05-06T11:47:44.315Z,1.40
2023-05-06T11:50:12.470Z,1.35
2023-05-06T11:52:40.355Z,1.50
2023-05-06T11:55:09.866Z,1.60
2023-05-06T11:57:37.428Z,1.40
2023-05-06T12:00:08.895Z,1.58
2023-05-06T12:02:36.614Z,1.45
2023-05-06T12:05:04.714Z,1.52
2023-05-06T12:07:32.285Z,1.33
2023-05-06T12:10:03.991Z,1.40
2023-05-06T12:12:32.745Z,1.40
2023-05-06T12:15:00.504Z,1.60
2023-05-06T12:17:29.397Z,1.35
2023-05-06T12:19:57.797Z,1.58
2023-05-06T12:22:25.654Z,1.50
2023-05-06T12:24:53.881Z,1.70
2023-05-06T12:27:31.624Z,2.60
2023-05-06T12:29:59.219Z,1.52
2023-05-06T12:32:26.883Z,1.70
2023-05-06T12:34:56.507Z,1.90
2023-05-06T12:37:28.618Z,1.70
2023-05-06T12:39:58.865Z,1.73
2023-05-06T12:42:27.345Z,1.50
2023-05-06T12:44:55.004Z,1.80
2023-05-06T12:47:23.447Z,1.80
2023-05-06T12:49:52.142Z,1.60
2023-05-06T12:52:21.392Z,1.48
2023-05-06T12:54:49.756Z,1.40
2023-05-06T12:57:17.405Z,2.08
2023-05-06T12:59:45.446Z,1.58
2023-05-06T13:02:13.573Z,1.60
2023-05-06T13:04:41.342Z,1.60
2023-05-06T13:07:09.394Z,1.95
2023-05-06T13:09:38.246Z,2.35
2023-05-06T13:12:06.194Z,1.70
2023-05-06T13:14:33.763Z,1.77
2023-05-06T13:17:04.855Z,1.60
2023-05-06T13:19:33.478Z,1.40
2023-05-06T13:22:01.431Z,1.45
2023-05-06T13:24:29.154Z,1.48
2023-05-06T13:27:00.587Z,1.25
2023-05-06T13:29:28.277Z,1.40
2023-05-06T13:31:56.400Z,1.42
2023-05-06T13:34:24.026Z,1.25
2023-05-06T13:36:52.026Z,1.52
2023-05-06T13:39:19.830Z,1.25
2023-05-06T13:41:48.253Z,1.27
2023-05-06T13:44:17.177Z,1.15
2023-05-06T13:46:46.403Z,1.30
2023-05-06T13:49:15.758Z,1.20
2023-05-06T13:51:43.471Z,1.20
2023-05-06T13:54:11.129Z,1.20
2023-05-06T13:56:38.748Z,1.33
2023-05-06T13:59:08.183Z,1.17
2023-05-06T14:01:37.726Z,1.30
2023-05-06T14:04:05.565Z,1.38
2023-05-06T14:06:33.039Z,2.33
2023-05-06T14:09:00.801Z,1.73
2023-05-06T14:11:28.359Z,2.80
2023-05-06T14:13:56.461Z,1.60
2023-05-06T14:16:24.148Z,1.30
2023-05-06T14:18:53.510Z,1.20
2023-05-06T14:21:21.671Z,1.30
2023-05-06T14:23:49.156Z,1.15
2023-05-06T14:26:16.884Z,1.30
2023-05-06T14:28:44.421Z,1.10
2023-05-06T14:31:12.036Z,1.30
2023-05-06T14:33:39.681Z,1.40
2023-05-06T14:36:08.878Z,1.35
2023-05-06T14:38:36.407Z,1.10
2023-05-06T14:41:04.039Z,1.40
2023-05-06T14:43:31.600Z,1.25
2023-05-06T14:45:59.167Z,1.30
2023-05-06T14:48:26.686Z,1.10
2023-05-06T14:50:54.230Z,1.08
2023-05-06T14:53:23.179Z,1.15
2023-05-06T14:55:51.030Z,1.20
2023-05-06T14:58:18.810Z,1.27
2023-05-06T15:00:46.420Z,1.10
2023-05-06T15:03:16.082Z,1.10
2023-05-06T15:05:43.662Z,1.30
2023-05-06T15:08:11.248Z,1.20
2023-05-06T15:10:40.781Z,1.20
2023-05-06T15:13:08.993Z,1.10
2023-05-06T15:15:36.589Z,1.20
2023-05-06T15:18:04.221Z,1.30
2023-05-06T15:20:31.938Z,3.50
2023-05-06T15:22:59.539Z,3.67
2023-05-06T15:25:34.827Z,9.93
2023-05-06T15:28:05.199Z,1.38
2023-05-06T15:30:32.828Z,1.88
2023-05-06T15:33:01.376Z,63.85
2023-05-06T15:35:29.220Z,1.75
2023-05-06T15:37:58.795Z,1.40
2023-05-06T15:40:26.597Z,1.27
2023-05-06T15:42:54.217Z,1.08
2023-05-06T15:45:23.433Z,2.00
2023-05-06T15:47:51.741Z,4.25
2023-05-06T15:50:32.512Z,1.42
2023-05-06T15:53:02.129Z,1.10
2023-05-06T15:55:30.051Z,1.30
2023-05-06T15:58:00.468Z,1.30
2023-05-06T16:00:29.742Z,1.10
2023-05-06T16:02:57.463Z,1.10
2023-05-06T16:05:25.087Z,1.10
2023-05-06T16:07:52.733Z,1.20
2023-05-06T16:10:24.450Z,1.10
2023-05-06T16:12:52.587Z,1.05
2023-05-06T16:15:20.261Z,1.15
2023-05-06T16:17:49.293Z,1.20
2023-05-06T16:20:17.307Z,1.10
2023-05-06T16:22:50.398Z,1.00
2023-05-06T16:25:18.086Z,1.23
2023-05-06T16:27:45.606Z,1.35
2023-05-06T16:30:13.363Z,1.52
2023-05-06T16:32:40.912Z,1.30
2023-05-06T16:35:10.771Z,1.20
2023-05-06T16:37:38.425Z,1.45
2023-05-06T16:40:06.548Z,1.95
2023-05-06T16:42:34.117Z,1.63
2023-05-06T16:45:01.854Z,1.60
2023-05-06T16:47:29.630Z,1.35
2023-05-06T16:49:57.482Z,1.73
2023-05-06T16:52:26.581Z,1.35
2023-05-06T16:54:54.155Z,1.35
2023-05-06T16:57:21.894Z,1.60
2023-05-06T16:59:49.638Z,1.10
2023-05-06T17:02:17.212Z,1.25
2023-05-06T17:04:44.770Z,1.27
2023-05-06T17:07:12.281Z,1.23
2023-05-06T17:09:41.877Z,1.15
2023-05-06T17:12:10.156Z,1.30
2023-05-06T17:14:37.730Z,1.40
2023-05-06T17:17:05.616Z,1.17
2023-05-06T17:19:33.373Z,1.63
2023-05-06T17:22:00.918Z,1.15
2023-05-06T17:24:28.493Z,1.30
2023-05-06T17:26:57.378Z,1.42
2023-05-06T17:29:26.247Z,1.40
2023-05-06T17:31:53.975Z,1.52
2023-05-06T17:36:49.790Z,1.40
2023-05-06T17:39:17.346Z,1.60
2023-05-06T17:41:44.909Z,1.80
2023-05-06T17:44:16.523Z,2.00
2023-05-06T17:46:45.516Z,2.00
2023-05-06T17:49:13.232Z,2.60
2023-05-06T17:51:42.508Z,1.80
2023-05-06T17:54:10.063Z,2.00
2023-05-06T17:56:37.574Z,2.28
2023-05-06T17:59:05.556Z,2.08
2023-05-06T18:01:34.432Z,2.35
2023-05-06T18:04:02.263Z,1.92
2023-05-06T18:06:29.882Z,1.92
2023-05-06T18:08:57.410Z,1.77
2023-05-06T18:11:25.105Z,1.70
2023-05-06T18:13:52.632Z,1.70
2023-05-06T18:16:20.215Z,1.45
2023-05-06T18:18:49.264Z,2.00
2023-05-06T18:21:16.844Z,1.48
2023-05-06T18:23:44.450Z,1.92
2023-05-06T18:26:12.036Z,1.90
2023-05-06T18:28:41.030Z,1.80
2023-05-06T18:31:08.579Z,2.08
2023-05-06T18:33:36.137Z,1.80
2023-05-06T18:36:05.243Z,1.80
2023-05-06T18:38:32.854Z,1.58
2023-05-06T18:41:00.374Z,1.98
2023-05-06T18:43:29.016Z,2.03
2023-05-06T18:45:56.613Z,1.58
2023-05-06T18:48:24.413Z,2.40
2023-05-06T18:50:54.138Z,2.10
2023-05-06T18:53:23.003Z,1.85
2023-05-06T18:55:50.922Z,3.40
2023-05-06T18:58:18.528Z,1.80
2023-05-06T19:00:46.280Z,2.25
2023-05-06T19:03:13.889Z,1.92
2023-05-06T19:05:41.443Z,2.15
2023-05-06T19:08:10.257Z,2.25
2023-05-06T19:10:39.433Z,2.58
2023-05-06T19:13:09.097Z,2.13
2023-05-06T19:15:36.857Z,1.83
2023-05-06T19:18:05.158Z,2.05
2023-05-06T19:20:34.005Z,2.03
2023-05-06T19:23:03.496Z,2.22
2023-05-06T19:25:31.396Z,2.33
2023-05-06T19:28:00.493Z,2.40
2023-05-06T19:30:28.416Z,3.03
2023-05-06T19:32:57.603Z,2.03
2023-05-06T19:35:25.395Z,2.20
2023-05-06T19:37:53.011Z,2.30
2023-05-06T19:40:22.015Z,2.35
2023-05-06T19:42:50.000Z,2.78
2023-05-06T19:45:19.536Z,2.60
2023-05-06T19:47:47.332Z,2.85
2023-05-06T19:50:15.077Z,2.60
2023-05-06T19:52:42.797Z,3.22
2023-05-06T19:55:11.218Z,2.90
2023-05-06T19:57:39.180Z,2.95
2023-05-06T20:00:10.150Z,3.15
2023-05-06T20:02:39.810Z,2.85
2023-05-06T20:05:07.798Z,2.50
2023-05-06T20:07:35.675Z,2.70
2023-05-06T20:10:03.300Z,2.90
2023-05-06T20:12:41.110Z,2.95
2023-05-06T20:15:09.585Z,2.55
2023-05-06T20:17:38.078Z,3.03
2023-05-06T20:20:09.736Z,3.25
2023-05-06T20:22:37.937Z,2.85
2023-05-06T20:25:09.248Z,3.00
2023-05-06T20:27:37.252Z,2.70
2023-05-06T20:30:06.173Z,3.30
2023-05-06T20:32:33.980Z,2.58
2023-05-06T20:35:01.751Z,2.90
2023-05-06T20:37:31.287Z,3.20
2023-05-06T20:39:59.164Z,2.72
2023-05-06T20:42:26.818Z,3.22
2023-05-06T20:44:54.586Z,3.55
2023-05-06T20:47:22.273Z,3.22
2023-05-06T20:49:50.197Z,3.60
2023-05-06T20:52:17.748Z,4.88
2023-05-06T20:54:46.890Z,3.50
2023-05-06T20:57:15.154Z,3.70
2023-05-06T20:59:43.068Z,3.40
2023-05-06T21:02:11.016Z,3.20
2023-05-06T21:04:38.750Z,3.35
2023-05-06T21:07:06.451Z,3.05
2023-05-06T21:09:34.044Z,2.83
2023-05-06T21:12:03.189Z,3.03
2023-05-06T21:14:30.837Z,3.20
2023-05-06T21:16:58.644Z,3.08
2023-05-06T21:19:26.438Z,3.08
2023-05-06T21:21:54.164Z,3.15
2023-05-06T21:24:21.801Z,3.08
2023-05-06T21:26:49.494Z,2.85
2023-05-06T21:29:18.569Z,2.75
2023-05-06T21:31:46.196Z,2.40
2023-05-06T21:34:13.880Z,2.80
2023-05-06T21:36:42.311Z,2.88
2023-05-06T21:39:11.825Z,3.05
2023-05-06T21:41:39.697Z,2.80
2023-05-06T21:44:08.274Z,3.25
2023-05-06T21:46:37.915Z,3.03
2023-05-06T21:49:14.650Z,3.28
2023-05-06T21:51:42.337Z,2.97
2023-05-06T21:54:10.008Z,2.92
2023-05-06T21:56:37.870Z,3.00
2023-05-06T21:59:06.388Z,3.15
2023-05-06T22:01:36.126Z,2.88
2023-05-06T22:04:11.292Z,3.10
2023-05-06T22:06:39.456Z,3.28
2023-05-06T22:09:09.583Z,2.92
2023-05-06T22:11:38.694Z,3.05
2023-05-06T22:14:06.794Z,3.10
2023-05-06T22:16:35.700Z,3.40
2023-05-06T22:19:06.015Z,3.50
2023-05-06T22:21:34.543Z,3.10
2023-05-06T22:24:02.298Z,3.08
2023-05-06T22:26:30.028Z,3.33
2023-05-06T22:28:57.694Z,3.40
2023-05-06T22:31:25.729Z,3.25
2023-05-06T22:33:55.577Z,3.40
2023-05-06T22:36:26.872Z,3.42
2023-05-06T22:38:54.706Z,3.22
2023-05-06T22:41:22.676Z,3.40
2023-05-06T22:43:50.586Z,3.28
2023-05-06T22:46:18.513Z,3.38
2023-05-06T22:48:46.423Z,3.45
2023-05-06T22:51:15.601Z,3.35
2023-05-06T22:53:45.020Z,3.47
2023-05-06T22:56:12.647Z,3.60
2023-05-06T22:58:40.289Z,3.85
2023-05-06T23:01:08.096Z,3.90
2023-05-06T23:03:36.020Z,3.72
2023-05-06T23:06:04.561Z,3.50
2023-05-06T23:08:32.301Z,3.63
2023-05-06T23:11:01.315Z,3.95
2023-05-06T23:13:28.996Z,3.33
2023-05-06T23:15:56.632Z,3.80
2023-05-06T23:18:24.393Z,3.33
2023-05-06T23:20:52.244Z,3.30
2023-05-06T23:23:19.898Z,3.78
2023-05-06T23:25:47.549Z,3.33
2023-05-06T23:28:16.603Z,3.72
2023-05-06T23:30:44.377Z,3.40
2023-05-06T23:33:12.115Z,3.53
2023-05-06T23:35:39.757Z,3.20
2023-05-06T23:38:07.536Z,3.22
2023-05-06T23:40:35.287Z,3.35
2023-05-06T23:43:02.870Z,3.55
2023-05-06T23:45:32.006Z,3.65
2023-05-06T23:47:59.643Z,3.30
2023-05-06T23:50:27.391Z,3.92
2023-05-06T23:52:55.204Z,4.07
2023-05-06T23:55:22.867Z,3.60
2023-05-06T23:57:50.678Z,4.45
